Melbourne, IA (50162)

11:26 AM CDT on July 23, 2016 (GMT -0500)
Marshalltown Municipal | | Change Station
Active Advisory: Excessive Heat Warning

Elev 971 ft 42.11 °N, 92.92 °W | Updated 33 minutes ago

Clear
Clear
85 °F
Feels Like 95 °F
N
10
Wind Variable Wind from SE

Today
High -- | Low -- °F
--% Chance of Precip.
Yesterday
High -- | Low -- °F
Precip. -- in
Pressure 29.87 in
Visibility 10.0 miles
Clouds Clear
Heat Index 95 °F
Dew Point 77 °F
Humidity 77%
Rainfall 0.00 in
Snow Depth Not available.
5:57 AM 8:39 PM
Waning Gibbous, 84% visible
METAR KMIW 231553Z AUTO 13009KT 10SM CLR 29/25 A2990 RMK AO2 SLP114 T02940250
Pressure 29.87 in
Visibility 10.0 miles
Clouds Clear
Heat Index 95 °F
Dew Point 77 °F
Humidity 77%
Rainfall 0.00 in
Snow Depth Not available.
5:57 AM 8:39 PM
Waning Gibbous, 84% visible
METAR KMIW 231553Z AUTO 13009KT 10SM CLR 29/25 A2990 RMK AO2 SLP114 T02940250

10-Day Weather Forecast

Almanac

Astronomy

Jul. 23, 2016 Rise Set
Actual Time
Civil Twilight
Nautical Twilight
Astronomical Twilight
Moon
Length of Visible Light
Length of Day
Tomorrow will be .
, % of the Moon is Illuminated

Today's Extremes

State Highs State Lows

Community

WunderPhotos

Upload Photos

1,926,858 photos uploaded!

WunderBlog® & News

Nearby

Air Quality

  Air Quality AQ Index Pollutant
Not available.

Snow Depth

Station Depth Elevation

Earthquake Activity

City Distance Mag. Time & Date
Minimum magnitude displayed is 2.5.

Coastal Water Temperatures

Place Temperature

Stations

Nearby Weather Stations

Station Location Temp. Windchill Dew Point Humidity Wind Precip. Elev Updated Type
                   

Watches & Warnings

Excessive Heat Warning
Issued: 11:24 AM CDT Jul. 23, 2016 – National Weather Service

... Excessive heat warning remains in effect until 7 PM CDT this
evening...

* temperature... high temperatures in the lower 90s combined with
dew points ranging from 75 to 80 will produce heat index
values of 100 to 110 during the peak heating of the day.

* Impacts... excessive heat could lead to severe heat related
illnesses and possibly death if proper action is not taken.

Precautionary/preparedness actions...

An excessive heat warning means that a prolonged period of
dangerously hot temperatures will occur. The combination of hot
temperatures and high humidity will combine to create a dangerous
situation in which heat illnesses are likely.

Children... seniors and people with chronic conditions are at
higher risk. Reschedule strenuous outdoor activities and exercise
to cooler evening hours. Drink plenty of water and take frequent
breaks to get out of the heat and get into an air conditioned
space. Do not leave pets and/or children in unattended vehicles.
Car interiors can reach lethal temperatures in a matter of
minutes in these conditions.

Know the signs and symptoms of heat exhaustion and heat stroke.
Wear light weight and loose fitting clothing when possible and
drink plenty of water. Heat stroke is an emergency... call 9 1 1.